Time;durP1;ratioP1;P1;durP2;ratioP2;P2;SDS_P1;SDS_P2;PMS_P1;PMS_P2;Temp;Humidity;BMP_temperature;BMP_pressure;BME280_temperature;BME280_humidity;BME280_pressure;Samples;Min_cycle;Max_cycle;Signal;HPM_P1;HPM_P2
2020/12/20 00:02:19;;;;;;;70.92;26.05;;;;;;;-0.30;91.45;102130.39;1722612;82;20911;-36
2020/12/20 00:04:47;;;;;;;68.40;24.07;;;;;;;-0.31;91.45;102133.73;1722572;83;20987;-37
2020/12/20 00:07:17;;;;;;;71.95;28.07;;;;;;;-0.31;91.43;102135.00;1722224;83;21549;-36
2020/12/20 00:09:45;;;;;;;72.50;26.87;;;;;;;-0.34;91.38;102134.84;1722653;83;20997;-36
2020/12/20 00:12:13;;;;;;;71.17;28.27;;;;;;;-0.35;91.48;102135.64;1722534;82;22341;-35
2020/12/20 00:14:41;;;;;;;68.45;25.62;;;;;;;-0.32;91.57;102141.27;1722506;82;20955;-37
2020/12/20 00:17:10;;;;;;;74.12;27.02;;;;;;;-0.31;91.53;102137.55;1722580;83;20904;-37
2020/12/20 00:19:40;;;;;;;71.42;26.52;;;;;;;-0.27;91.50;102135.16;1722442;83;20935;-36
2020/12/20 00:22:13;;;;;;;67.72;26.33;;;;;;;-0.27;91.46;102131.34;1722569;83;21034;-37
2020/12/20 00:24:42;;;;;;;63.90;24.90;;;;;;;-0.27;91.45;102132.61;1722553;83;21389;-36
2020/12/20 00:27:13;;;;;;;62.55;25.17;;;;;;;-0.24;91.46;102139.14;1722492;83;20935;-36
2020/12/20 00:29:41;;;;;;;65.85;26.60;;;;;;;-0.24;91.40;102136.59;1722612;83;21023;-38
2020/12/20 00:32:11;;;;;;;73.40;26.90;;;;;;;-0.23;91.43;102138.34;1722555;83;20935;-37
2020/12/20 00:34:39;;;;;;;68.78;27.02;;;;;;;-0.23;91.48;102140.50;1722617;83;21062;-36
2020/12/20 00:37:07;;;;;;;71.82;27.62;;;;;;;-0.21;91.43;102140.56;1722578;83;21339;-36
2020/12/20 00:39:35;;;;;;;66.92;26.33;;;;;;;-0.20;91.40;102137.22;1722566;82;20978;-36
2020/12/20 00:42:06;;;;;;;70.40;27.75;;;;;;;-0.20;91.43;102137.22;1722540;83;20970;-36
2020/12/20 00:44:34;;;;;;;67.12;26.35;;;;;;;-0.21;91.42;102132.55;1722552;83;21592;-36
2020/12/20 00:47:03;;;;;;;67.37;26.82;;;;;;;-0.21;91.37;102129.11;1722577;83;21006;-37
2020/12/20 00:49:32;;;;;;;67.37;27.15;;;;;;;-0.21;91.32;102131.66;1727188;82;22097;-35
2020/12/20 00:52:03;;;;;;;69.05;26.87;;;;;;;-0.22;91.30;102132.45;1729775;83;20943;-36
2020/12/20 00:54:31;;;;;;;67.53;27.13;;;;;;;-0.22;91.34;102132.07;1729730;83;20946;-36
2020/12/20 00:57:00;;;;;;;64.42;26.95;;;;;;;-0.20;91.34;102134.68;1729836;83;21040;-35
2020/12/20 00:59:28;;;;;;;61.58;25.48;;;;;;;-0.20;91.27;102130.48;1729808;83;20939;-38
2020/12/20 01:04:11;;;;;;;72.75;27.27;;;;;;;-0.16;91.33;102128.95;1776925;79;22593;-35
2020/12/20 01:06:38;;;;;;;69.80;26.87;;;;;;;-0.19;91.36;102124.97;1749764;82;20927;-36
2020/12/20 01:09:09;;;;;;;58.78;26.05;;;;;;;-0.13;91.33;102133.34;1748252;82;21569;-35
2020/12/20 01:11:37;;;;;;;76.28;28.45;;;;;;;-0.13;91.32;102131.66;1749611;82;20940;-36
2020/12/20 01:14:05;;;;;;;68.17;27.58;;;;;;;-0.14;91.31;102129.91;1749799;82;21000;-37
2020/12/20 01:16:34;;;;;;;70.55;28.73;;;;;;;-0.13;91.34;102129.52;1749759;82;20978;-35
2020/12/20 01:19:02;;;;;;;65.80;26.42;;;;;;;-0.11;91.34;102125.38;1749751;81;20916;-35
2020/12/20 01:21:30;;;;;;;68.78;27.32;;;;;;;-0.10;91.29;102129.30;1749805;82;22213;-35
2020/12/20 01:23:58;;;;;;;70.87;27.70;;;;;;;-0.11;91.22;102130.09;1749654;82;20991;-36
2020/12/20 01:26:28;;;;;;;66.70;27.80;;;;;;;-0.14;91.20;102132.45;1749885;82;20991;-36
2020/12/20 01:28:57;;;;;;;67.90;26.82;;;;;;;-0.13;91.18;102132.92;1749683;82;21050;-36
2020/12/20 01:31:25;;;;;;;63.05;27.32;;;;;;;-0.13;91.09;102129.11;1749767;81;20987;-35
2020/12/20 01:34:00;;;;;;;62.33;26.42;;;;;;;-0.13;91.20;102132.92;1747258;82;21168;-36
2020/12/20 01:36:32;;;;;;;65.25;27.42;;;;;;;-0.12;91.27;102135.98;1749651;82;20927;-37
2020/12/20 01:38:59;;;;;;;64.47;26.93;;;;;;;-0.09;91.25;102140.34;1749703;82;20979;-36
2020/12/20 01:41:26;;;;;;;66.97;27.13;;;;;;;-0.09;91.12;102136.14;1749756;82;21014;-36
2020/12/20 01:43:54;;;;;;;61.25;25.90;;;;;;;-0.12;91.09;102137.64;1749609;82;20991;-36
2020/12/20 01:46:24;;;;;;;66.77;26.82;;;;;;;-0.15;91.01;102130.70;1748200;82;21205;-35
2020/12/20 01:48:52;;;;;;;60.83;25.60;;;;;;;-0.18;90.92;102131.81;1749722;82;21562;-37
2020/12/20 01:51:20;;;;;;;64.55;25.88;;;;;;;-0.20;90.83;102135.95;1749747;82;20935;-36
2020/12/20 01:53:50;;;;;;;54.00;23.47;;;;;;;-0.24;90.87;102141.69;1748073;82;20935;-37
2020/12/20 01:56:19;;;;;;;62.83;26.48;;;;;;;-0.30;90.88;102143.11;1749745;82;20975;-36
2020/12/20 01:58:48;;;;;;;67.00;28.15;;;;;;;-0.30;90.92;102135.86;1749735;82;22038;-36
2020/12/20 02:01:18;;;;;;;63.58;26.42;;;;;;;-0.30;90.93;102139.30;1748304;80;20995;-36
2020/12/20 02:03:49;;;;;;;64.42;26.12;;;;;;;-0.27;91.03;102138.98;1749528;82;21489;-36
2020/12/20 02:06:18;;;;;;;71.82;28.65;;;;;;;-0.26;91.11;102140.73;1749090;82;21026;-35
2020/12/20 02:08:48;;;;;;;59.50;26.10;;;;;;;-0.24;91.10;102142.58;1749502;82;21490;-36
2020/12/20 02:11:16;;;;;;;63.70;25.77;;;;;;;-0.23;91.07;102142.16;1750597;82;22234;-37
2020/12/20 02:13:51;;;;;;;69.95;27.17;;;;;;;-0.25;90.99;102148.46;1750373;82;20976;-37
2020/12/20 02:16:22;;;;;;;64.60;25.57;;;;;;;-0.29;90.95;102146.52;1749904;82;20900;-35
2020/12/20 02:18:50;;;;;;;59.27;24.92;;;;;;;-0.31;90.88;102148.11;1749928;82;20999;-34
2020/12/20 02:21:23;;;;;;;64.20;27.05;;;;;;;-0.33;90.84;102143.34;1750110;82;20932;-34
2020/12/20 02:23:52;;;;;;;63.78;24.15;;;;;;;-0.39;90.89;102147.69;1749278;82;21372;-35
2020/12/20 02:26:24;;;;;;;69.72;26.75;;;;;;;-0.41;90.96;102145.47;1749698;82;21054;-34
2020/12/20 02:28:53;;;;;;;68.35;27.15;;;;;;;-0.41;90.99;102156.91;1750052;82;20911;-37
2020/12/20 02:31:24;;;;;;;60.63;25.85;;;;;;;-0.42;91.00;102155.16;1749990;82;21038;-35
2020/12/20 02:33:53;;;;;;;65.20;26.93;;;;;;;-0.43;91.03;102152.14;1750016;82;21019;-34
2020/12/20 02:36:20;;;;;;;73.02;28.45;;;;;;;-0.41;91.10;102160.73;1722338;82;21360;-36
2020/12/20 02:38:48;;;;;;;69.92;28.70;;;;;;;-0.39;91.13;102161.69;1749873;82;20980;-36
2020/12/20 02:41:20;;;;;;;65.28;28.55;;;;;;;-0.37;91.11;102151.23;1748974;82;20892;-35
2020/12/20 02:43:50;;;;;;;66.85;26.82;;;;;;;-0.38;91.10;102159.66;1749890;82;21026;-36
2020/12/20 02:46:20;;;;;;;70.22;27.40;;;;;;;-0.39;91.16;102164.23;1750034;82;20923;-36
2020/12/20 02:48:53;;;;;;;68.15;28.90;;;;;;;-0.35;91.19;102158.55;1748734;82;21287;-35
2020/12/20 02:51:21;;;;;;;58.80;25.12;;;;;;;-0.34;91.16;102159.02;1749911;82;21073;-36
2020/12/20 02:53:50;;;;;;;62.95;25.85;;;;;;;-0.35;91.12;102154.73;1750052;82;21299;-36
2020/12/20 02:56:19;;;;;;;72.67;28.27;;;;;;;-0.39;91.13;102160.42;1748472;82;20928;-37
2020/12/20 02:58:49;;;;;;;62.83;26.77;;;;;;;-0.41;91.16;102164.55;1749968;82;20963;-36
2020/12/20 03:01:19;;;;;;;70.12;27.22;;;;;;;-0.37;91.18;102170.70;1749149;82;21344;-35
2020/12/20 03:03:47;;;;;;;74.85;29.35;;;;;;;-0.36;91.26;102168.25;1749722;81;20940;-36
2020/12/20 03:06:15;;;;;;;73.57;28.70;;;;;;;-0.36;91.32;102169.90;1749969;82;21592;-37
2020/12/20 03:08:43;;;;;;;70.15;27.32;;;;;;;-0.34;91.27;102169.58;1749889;82;21042;-36
2020/12/20 03:11:12;;;;;;;65.47;28.05;;;;;;;-0.31;91.26;102173.18;1749946;82;21375;-36
2020/12/20 03:13:40;;;;;;;71.72;29.42;;;;;;;-0.31;91.26;102177.00;1749874;82;21254;-37
2020/12/20 03:16:08;;;;;;;67.22;27.15;;;;;;;-0.30;91.35;102180.02;1749857;82;21047;-34
2020/12/20 03:18:37;;;;;;;77.27;28.83;;;;;;;-0.26;91.36;102171.27;1749869;80;20932;-36
2020/12/20 03:21:06;;;;;;;68.70;27.85;;;;;;;-0.24;91.28;102176.94;1749961;82;20971;-35
2020/12/20 03:23:39;;;;;;;68.67;27.70;;;;;;;-0.26;91.29;102172.55;1728714;82;21291;-35
2020/12/20 03:26:14;;;;;;;62.30;25.50;;;;;;;-0.25;91.36;102181.94;1704145;82;21369;-37
2020/12/20 03:28:49;;;;;;;69.72;28.23;;;;;;;-0.23;91.29;102177.80;1745530;82;20948;-36
2020/12/20 03:31:23;;;;;;;61.70;26.62;;;;;;;-0.24;91.23;102174.39;1728448;82;21272;-36
2020/12/20 03:33:53;;;;;;;66.30;27.20;;;;;;;-0.23;91.28;102176.52;1745977;82;21564;-35
2020/12/20 03:36:25;;;;;;;63.98;26.05;;;;;;;-0.24;91.28;102178.59;1748201;82;20939;-36
2020/12/20 03:38:54;;;;;;;64.75;27.52;;;;;;;-0.22;91.25;102176.63;1749956;82;22380;-34
2020/12/20 03:41:23;;;;;;;68.87;28.85;;;;;;;-0.20;91.23;102183.05;1749901;82;20931;-35
2020/12/20 03:43:51;;;;;;;67.35;27.13;;;;;;;-0.20;91.23;102183.94;1749873;82;20948;-36
2020/12/20 03:46:19;;;;;;;66.35;27.37;;;;;;;-0.19;91.31;102186.07;1749938;82;20928;-35
2020/12/20 03:48:49;;;;;;;62.23;26.73;;;;;;;-0.16;91.26;102190.05;1749956;82;20908;-35
2020/12/20 03:51:19;;;;;;;66.22;28.17;;;;;;;-0.15;91.21;102200.71;1749942;82;21158;-34
2020/12/20 03:53:50;;;;;;;69.03;28.45;;;;;;;-0.15;91.22;102204.53;1749731;81;20951;-35
2020/12/20 03:56:20;;;;;;;67.60;27.85;;;;;;;-0.16;91.23;102202.78;1749915;82;21015;-35
2020/12/20 03:58:54;;;;;;;70.15;27.90;;;;;;;-0.14;91.21;102205.01;1747803;82;20931;-35
2020/12/20 04:01:23;;;;;;;59.25;27.50;;;;;;;-0.13;91.14;102205.91;1749838;82;21008;-35
2020/12/20 04:03:51;;;;;;;62.73;27.73;;;;;;;-0.15;91.10;102212.17;1743261;81;21356;-35
2020/12/20 04:06:20;;;;;;;66.97;26.75;;;;;;;-0.19;91.12;102216.63;1735859;82;20933;-38
2020/12/20 04:08:47;;;;;;;59.33;25.17;;;;;;;-0.18;91.12;102215.83;1735792;82;21000;-35
2020/12/20 04:11:17;;;;;;;54.95;26.07;;;;;;;-0.16;91.05;102224.42;1733980;82;21035;-35
2020/12/20 04:13:45;;;;;;;67.95;27.55;;;;;;;-0.17;91.11;102221.39;1735887;82;20952;-35
2020/12/20 04:16:14;;;;;;;59.55;25.82;;;;;;;-0.17;91.21;102221.39;1735906;82;21201;-35
2020/12/20 04:18:42;;;;;;;55.35;25.80;;;;;;;-0.14;91.19;102229.20;1735719;82;21455;-38
2020/12/20 04:21:11;;;;;;;61.18;26.02;;;;;;;-0.13;91.13;102233.49;1735888;82;21012;-36
2020/12/20 04:23:38;;;;;;;57.50;25.80;;;;;;;-0.14;91.13;102230.47;1735811;82;20917;-35
2020/12/20 04:26:18;;;;;;;58.42;25.88;;;;;;;-0.14;91.24;102233.02;1735437;82;21011;-35
2020/12/20 04:28:48;;;;;;;52.48;24.23;;;;;;;-0.11;91.21;102239.58;1724318;82;21326;-35
2020/12/20 04:31:17;;;;;;;53.23;23.95;;;;;;;-0.10;91.09;102244.25;1734753;82;21486;-34
2020/12/20 04:33:46;;;;;;;54.33;25.55;;;;;;;-0.13;91.12;102247.49;1735731;82;21526;-36
2020/12/20 04:36:16;;;;;;;53.40;25.48;;;;;;;-0.17;91.09;102241.77;1735700;82;20999;-36
2020/12/20 04:38:45;;;;;;;48.70;24.00;;;;;;;-0.15;91.08;102244.89;1735845;82;21039;-36
2020/12/20 04:41:14;;;;;;;55.60;25.72;;;;;;;-0.12;91.07;102244.56;1735907;82;22224;-35
2020/12/20 04:43:43;;;;;;;52.30;24.02;;;;;;;-0.16;91.02;102248.61;1654398;82;20925;-34
2020/12/20 04:46:11;;;;;;;51.37;23.52;;;;;;;-0.18;91.08;102248.92;1715225;82;20928;-36
2020/12/20 04:48:43;;;;;;;51.00;25.10;;;;;;;-0.16;91.03;102252.05;1734386;82;21043;-35
2020/12/20 04:51:16;;;;;;;53.10;24.10;;;;;;;-0.18;90.96;102248.92;1715512;82;20984;-36
2020/12/20 04:53:44;;;;;;;50.95;23.87;;;;;;;-0.16;91.06;102252.42;1735847;82;21338;-36
2020/12/20 04:56:14;;;;;;;52.33;24.52;;;;;;;-0.18;91.10;102252.36;1692373;82;21051;-35
2020/12/20 04:58:43;;;;;;;56.70;25.15;;;;;;;-0.14;91.12;102254.66;1734497;82;21082;-35
2020/12/20 05:01:13;;;;;;;55.38;25.27;;;;;;;-0.13;91.09;102256.41;1735867;82;20976;-36
2020/12/20 05:03:41;;;;;;;55.40;24.80;;;;;;;-0.11;91.04;102259.05;1738619;81;21019;-35
2020/12/20 05:06:11;;;;;;;60.50;27.42;;;;;;;-0.11;91.07;102255.23;1749795;82;21208;-35
2020/12/20 05:08:40;;;;;;;59.45;27.77;;;;;;;-0.10;91.04;102255.33;1749787;82;20976;-36
2020/12/20 05:11:08;;;;;;;63.33;29.60;;;;;;;-0.09;90.95;102260.90;1749857;82;20923;-36
2020/12/20 05:13:39;;;;;;;62.48;26.85;;;;;;;-0.11;90.94;102257.39;1749495;81;21002;-35
2020/12/20 05:16:08;;;;;;;69.25;28.80;;;;;;;-0.13;90.92;102256.41;1749855;82;20944;-35
2020/12/20 05:18:49;;;;;;;65.67;27.85;;;;;;;-0.10;90.84;102261.69;1847707;76;22704;-37
2020/12/20 05:21:27;;;;;;;63.38;28.62;;;;;;;-0.15;90.83;102265.25;1818152;79;20962;-35
2020/12/20 05:23:56;;;;;;;63.50;25.90;;;;;;;-0.16;90.88;102260.06;1818117;79;21188;-37
2020/12/20 05:26:31;;;;;;;59.95;25.15;;;;;;;-0.18;90.94;102264.20;1816873;79;20997;-37
2020/12/20 05:29:12;;;;;;;61.90;26.52;;;;;;;-0.17;90.90;102268.49;1818151;79;21478;-36
2020/12/20 05:31:44;;;;;;;62.83;25.88;;;;;;;-0.18;90.85;102268.02;1817843;79;21057;-35
2020/12/20 05:34:23;;;;;;;64.60;26.27;;;;;;;-0.18;90.93;102266.74;1817494;78;20998;-35
2020/12/20 05:36:52;;;;;;;66.87;27.65;;;;;;;-0.20;90.94;102269.22;1818114;78;21374;-36
2020/12/20 05:39:27;;;;;;;78.80;30.55;;;;;;;-0.19;90.84;102273.52;1814788;79;20923;-35
2020/12/20 05:42:06;;;;;;;72.62;27.30;;;;;;;-0.19;90.79;102270.08;1817075;79;20967;-37
2020/12/20 05:44:34;;;;;;;76.62;29.77;;;;;;;-0.19;90.86;102275.17;1818104;79;20989;-35
2020/12/20 05:47:06;;;;;;;71.85;28.52;;;;;;;-0.23;90.89;102274.53;1818083;79;21497;-37
2020/12/20 05:49:37;;;;;;;67.08;28.30;;;;;;;-0.20;90.96;102274.31;1818222;79;22078;-35
2020/12/20 05:52:11;;;;;;;78.78;29.42;;;;;;;-0.18;90.97;102285.84;1817956;79;20938;-35
2020/12/20 05:54:43;;;;;;;76.77;28.87;;;;;;;-0.16;91.04;102282.97;1818030;78;21509;-37
2020/12/20 05:57:19;;;;;;;84.32;30.57;;;;;;;-0.15;91.10;102278.36;1818085;78;20975;-37
2020/12/20 05:59:49;;;;;;;78.15;30.45;;;;;;;-0.10;91.10;102281.17;1818109;79;20982;-35
2020/12/20 06:02:17;;;;;;;74.90;29.42;;;;;;;-0.10;91.00;102279.90;1818076;79;21255;-37
2020/12/20 06:04:46;;;;;;;87.08;29.67;;;;;;;-0.12;90.97;102278.56;1817918;79;21005;-36
2020/12/20 06:07:15;;;;;;;76.60;30.62;;;;;;;-0.11;91.07;102284.52;1818178;79;21057;-37
2020/12/20 06:09:58;;;;;;;78.55;31.02;;;;;;;-0.10;91.01;102283.34;1818032;79;20974;-35
2020/12/20 06:12:30;;;;;;;85.50;32.13;;;;;;;-0.09;90.98;102282.55;1817655;79;20899;-36
2020/12/20 06:14:59;;;;;;;81.05;31.00;;;;;;;-0.05;91.05;102292.48;1818104;79;22350;-37
2020/12/20 06:17:28;;;;;;;75.75;28.23;;;;;;;-0.05;91.07;102292.09;1818403;78;20883;-35
2020/12/20 06:20:04;;;;;;;72.58;28.17;;;;;;;-0.05;90.95;102297.19;1818076;79;21473;-37
2020/12/20 06:22:35;;;;;;;76.20;28.27;;;;;;;-0.10;90.82;102303.70;1815165;79;21027;-37
2020/12/20 06:25:07;;;;;;;73.97;30.40;;;;;;;-0.18;90.85;102303.66;1818053;79;20966;-36
2020/12/20 06:27:35;;;;;;;78.97;29.57;;;;;;;-0.20;90.95;102309.95;1817914;78;22623;-36
2020/12/20 06:30:06;;;;;;;74.40;29.87;;;;;;;-0.20;90.95;102304.86;1817548;79;21010;-37
2020/12/20 06:32:43;;;;;;;70.40;28.07;;;;;;;-0.17;90.95;102311.77;1817517;79;21097;-37
2020/12/20 06:35:21;;;;;;;69.30;28.15;;;;;;;-0.18;91.01;102318.93;1817429;79;20955;-37
2020/12/20 06:37:49;;;;;;;68.55;26.23;;;;;;;-0.16;91.06;102319.52;1817454;79;20911;-36
2020/12/20 06:40:35;;;;;;;67.12;27.42;;;;;;;-0.08;91.09;102329.23;1817537;78;22744;-36
2020/12/20 06:43:03;;;;;;;66.83;27.00;;;;;;;-0.05;91.02;102326.47;1807581;79;20983;-36
2020/12/20 06:45:31;;;;;;;61.88;27.62;;;;;;;-0.05;91.01;102330.67;1817494;79;21037;-35
2020/12/20 06:48:01;;;;;;;60.90;25.17;;;;;;;-0.07;91.03;102330.98;1761408;79;20935;-35
2020/12/20 06:50:50;;;;;;;61.28;25.95;;;;;;;-0.04;91.08;102318.42;1817526;79;20895;-37
2020/12/20 06:53:18;;;;;;;58.65;25.57;;;;;;;0.04;91.14;102320.12;1817585;78;22629;-36
2020/12/20 06:55:48;;;;;;;68.90;28.40;;;;;;;0.09;91.18;102321.24;1817444;79;20959;-36
2020/12/20 06:58:19;;;;;;;86.42;27.02;;;;;;;0.10;91.12;102316.25;1817412;78;20986;-35
2020/12/20 07:00:55;;;;;;;68.47;24.65;;;;;;;0.14;91.07;102324.53;1817378;79;20919;-37
2020/12/20 07:03:31;;;;;;;50.90;20.37;;;;;;;0.20;91.03;102320.55;1817570;79;20962;-34
2020/12/20 07:06:11;;;;;;;56.60;25.05;;;;;;;0.21;90.98;102325.75;1817549;79;21357;-35
2020/12/20 07:08:43;;;;;;;51.68;25.25;;;;;;;0.20;90.95;102324.00;1816401;79;21046;-35
2020/12/20 07:11:22;;;;;;;44.10;21.65;;;;;;;0.24;90.90;102319.92;1760786;79;20986;-35
2020/12/20 07:13:51;;;;;;;47.05;22.58;;;;;;;0.26;90.86;102321.77;1817482;79;21449;-36
2020/12/20 07:16:22;;;;;;;45.43;22.15;;;;;;;0.25;90.85;102320.40;1817520;79;20911;-36
2020/12/20 07:18:58;;;;;;;70.35;22.30;;;;;;;0.22;90.90;102321.13;1817449;78;22220;-37
2020/12/20 07:21:34;;;;;;;50.92;22.42;;;;;;;0.27;90.84;102327.34;1817555;78;20939;-36
2020/12/20 07:24:17;;;;;;;46.63;22.37;;;;;;;0.30;90.76;102329.58;1801359;79;21481;-35
2020/12/20 07:26:48;;;;;;;45.67;22.02;;;;;;;0.27;90.75;102332.86;1817448;79;21489;-34
2020/12/20 07:29:17;;;;;;;46.20;21.85;;;;;;;0.30;90.84;102327.92;1817377;79;20958;-34
2020/12/20 07:31:45;;;;;;;49.73;23.40;;;;;;;0.36;90.76;102331.17;1817428;78;21309;-35
2020/12/20 07:34:13;;;;;;;43.48;22.62;;;;;;;0.39;90.69;102331.36;1817348;79;20971;-34
2020/12/20 07:36:41;;;;;;;43.28;21.65;;;;;;;0.42;90.74;102334.08;1817445;78;21018;-36
2020/12/20 07:39:10;;;;;;;41.15;21.55;;;;;;;0.47;90.77;102338.12;1817382;79;20883;-37
2020/12/20 07:41:38;;;;;;;41.53;21.20;;;;;;;0.55;90.76;102341.98;1817352;79;21002;-36
2020/12/20 07:44:07;;;;;;;44.05;23.15;;;;;;;0.62;90.68;102341.49;1817509;78;22352;-36
2020/12/20 07:46:36;;;;;;;47.85;24.07;;;;;;;0.68;90.63;102340.95;1817374;79;20911;-36
2020/12/20 07:49:12;;;;;;;45.85;23.40;;;;;;;0.73;90.57;102338.23;1817409;79;20975;-38
2020/12/20 07:51:41;;;;;;;41.70;22.77;;;;;;;0.80;90.43;102344.12;1817350;78;20911;-34
2020/12/20 07:54:14;;;;;;;50.98;25.02;;;;;;;0.84;90.29;102340.93;1817478;79;20860;-35
2020/12/20 07:56:47;;;;;;;40.30;20.77;;;;;;;0.85;90.23;102349.06;1817694;79;21199;-34
2020/12/20 07:59:18;;;;;;;36.40;19.12;;;;;;;0.88;90.10;102344.91;1817428;79;21042;-36
2020/12/20 08:01:48;;;;;;;31.85;18.10;;;;;;;0.88;89.91;102343.25;1817366;79;20971;-35
2020/12/20 08:04:25;;;;;;;37.60;19.90;;;;;;;0.89;89.75;102342.45;1817526;79;21430;-35
2020/12/20 08:06:51;;;;;;;46.25;20.72;;;;;;;0.86;89.63;102345.70;1817193;79;21010;-36
2020/12/20 08:09:25;;;;;;;41.80;21.65;;;;;;;0.85;89.60;102345.65;1817410;79;21355;-35
2020/12/20 08:11:53;;;;;;;44.67;22.58;;;;;;;0.86;89.50;102344.84;1817475;79;20954;-34
2020/12/20 08:14:22;;;;;;;48.08;24.25;;;;;;;0.86;89.36;102346.98;1817334;78;21006;-35
2020/12/20 08:16:52;;;;;;;38.92;20.05;;;;;;;0.83;89.28;102349.80;1817471;79;22223;-36
2020/12/20 08:19:26;;;;;;;48.68;23.22;;;;;;;0.82;89.30;102346.77;1817396;78;21409;-36
2020/12/20 08:22:12;;;;;;;57.78;27.05;;;;;;;0.78;89.19;102350.82;1817392;79;21310;-35
2020/12/20 08:24:48;;;;;;;55.10;25.57;;;;;;;0.78;89.13;102352.51;1817428;78;21050;-35
2020/12/20 08:27:25;;;;;;;59.55;26.52;;;;;;;0.75;89.22;102348.11;1817555;79;20951;-37
2020/12/20 08:29:57;;;;;;;66.12;28.98;;;;;;;0.74;89.25;102351.46;1817363;78;20970;-35
2020/12/20 08:32:36;;;;;;;58.30;25.70;;;;;;;0.77;89.31;102349.06;1817457;79;21003;-35
2020/12/20 08:35:14;;;;;;;53.55;25.57;;;;;;;0.83;89.22;102347.25;1817375;78;21127;-36
2020/12/20 08:37:43;;;;;;;47.27;22.25;;;;;;;0.85;89.00;102343.09;1817241;79;21478;-35
2020/12/20 08:40:15;;;;;;;59.88;25.37;;;;;;;0.83;88.98;102340.45;1817444;79;20991;-35
2020/12/20 08:42:46;;;;;;;49.55;23.80;;;;;;;0.83;88.96;102345.55;1817375;79;20995;-36
2020/12/20 08:45:19;;;;;;;54.10;25.57;;;;;;;0.89;88.95;102341.59;1817519;78;21014;-35
2020/12/20 08:47:48;;;;;;;47.25;22.93;;;;;;;0.95;88.97;102345.31;1817252;79;21396;-34
2020/12/20 08:50:25;;;;;;;43.13;22.17;;;;;;;1.01;88.88;102340.94;1817310;79;20971;-35
2020/12/20 08:53:05;;;;;;;50.52;23.98;;;;;;;1.05;88.79;102339.02;1817209;79;20967;-35
2020/12/20 08:55:33;;;;;;;50.33;23.30;;;;;;;1.06;88.69;102335.66;1817283;79;20970;-36
2020/12/20 08:58:04;;;;;;;43.58;21.50;;;;;;;1.13;88.55;102336.86;1817438;79;21371;-34
2020/12/20 09:00:34;;;;;;;50.03;21.48;;;;;;;1.21;88.37;102339.80;1817480;79;22304;-35
2020/12/20 09:03:03;;;;;;;57.73;27.20;;;;;;;1.23;88.25;102334.38;1817322;78;20971;-36
2020/12/20 09:05:34;;;;;;;55.48;25.62;;;;;;;1.22;88.16;102337.73;1817296;79;21509;-36
2020/12/20 09:08:04;;;;;;;48.98;23.40;;;;;;;1.27;88.08;102336.27;1817341;78;21149;-35
2020/12/20 09:10:35;;;;;;;43.55;21.07;;;;;;;1.31;87.88;102336.89;1817415;79;20978;-34
2020/12/20 09:13:05;;;;;;;47.90;22.93;;;;;;;1.29;87.81;102334.28;1817355;79;21480;-35
2020/12/20 09:15:39;;;;;;;48.40;23.67;;;;;;;1.31;87.74;102338.59;1784302;78;21022;-35
2020/12/20 09:18:25;;;;;;;48.38;23.35;;;;;;;1.34;87.63;102331.08;1734007;82;21075;-35
2020/12/20 09:20:52;;;;;;;44.67;22.52;;;;;;;1.40;87.51;102332.66;1748430;81;21134;-35
2020/12/20 09:23:23;;;;;;;40.00;21.57;;;;;;;1.28;87.21;102331.26;1748291;82;21038;-35
2020/12/20 09:25:59;;;;;;;42.15;20.75;;;;;;;1.21;86.90;102333.42;1748247;82;21102;-35
2020/12/20 09:28:29;;;;;;;38.25;19.60;;;;;;;1.24;86.96;102334.84;1748265;82;21447;-35
2020/12/20 09:30:58;;;;;;;32.83;17.32;;;;;;;1.27;86.95;102333.34;1748237;81;20979;-36
2020/12/20 09:33:33;;;;;;;33.35;17.52;;;;;;;1.27;86.73;102328.62;1748184;81;21035;-36
2020/12/20 09:36:15;;;;;;;30.52;17.25;;;;;;;1.25;86.59;102328.95;1748193;82;21026;-36
2020/12/20 09:38:46;;;;;;;31.87;15.78;;;;;;;1.27;86.70;102327.34;1747811;82;21148;-35
2020/12/20 09:41:18;;;;;;;21.80;12.93;;;;;;;1.33;86.67;102332.74;1748176;82;21616;-37
2020/12/20 09:43:46;;;;;;;23.70;13.50;;;;;;;1.34;86.50;102323.02;1748207;81;21482;-35
2020/12/20 09:46:24;;;;;;;22.20;13.03;;;;;;;1.28;86.15;102327.81;1748214;82;21034;-34
2020/12/20 09:48:52;;;;;;;21.17;13.98;;;;;;;1.28;85.99;102329.09;1748245;82;21022;-35
2020/12/20 09:51:21;;;;;;;22.58;12.93;;;;;;;1.27;85.98;102326.95;1729174;82;21440;-35
2020/12/20 09:53:51;;;;;;;28.75;14.60;;;;;;;1.28;85.96;102318.89;1729136;82;20951;-36
2020/12/20 09:56:19;;;;;;;28.25;15.98;;;;;;;1.31;85.97;102316.48;1748259;82;20931;-35
2020/12/20 09:58:47;;;;;;;22.30;13.60;;;;;;;1.39;85.95;102313.93;1748164;82;21513;-36
2020/12/20 10:01:21;;;;;;;19.05;13.05;;;;;;;1.49;85.85;102313.09;1748367;82;20951;-35
2020/12/20 10:03:49;;;;;;;19.45;12.03;;;;;;;1.57;85.65;102310.50;1748155;81;21384;-35
2020/12/20 10:06:18;;;;;;;18.98;12.03;;;;;;;1.61;85.53;102304.73;1748356;82;21022;-33
2020/12/20 10:08:46;;;;;;;18.17;11.90;;;;;;;1.58;85.03;102306.77;1748352;82;21109;-35
2020/12/20 10:11:18;;;;;;;17.32;12.03;;;;;;;1.49;84.71;102303.74;1748309;81;21054;-36
2020/12/20 10:13:47;;;;;;;13.55;9.70;;;;;;;1.47;84.95;102298.97;1748416;82;21589;-36
2020/12/20 10:16:19;;;;;;;16.05;10.78;;;;;;;1.48;84.75;102306.23;1748381;81;21348;-36
2020/12/20 10:18:46;;;;;;;17.27;11.40;;;;;;;1.47;84.81;102299.38;1744784;82;21042;-37
2020/12/20 10:21:15;;;;;;;16.75;12.23;;;;;;;1.48;84.64;102299.44;1731789;82;21049;-36
2020/12/20 10:23:45;;;;;;;17.40;12.18;;;;;;;1.51;84.68;102297.45;1731303;82;21152;-35
2020/12/20 10:26:13;;;;;;;17.73;12.05;;;;;;;1.57;84.64;102301.56;1731742;82;20990;-36
2020/12/20 10:28:41;;;;;;;18.50;12.93;;;;;;;1.58;84.65;102297.83;1731715;82;21488;-38
2020/12/20 10:31:09;;;;;;;22.90;14.03;;;;;;;1.63;84.64;102299.30;1731777;82;20947;-35
2020/12/20 10:33:37;;;;;;;17.00;12.00;;;;;;;1.70;84.47;102299.20;1731719;82;20922;-35
2020/12/20 10:36:06;;;;;;;18.87;11.95;;;;;;;1.72;84.33;102300.14;1731714;82;21001;-35
2020/12/20 10:38:33;;;;;;;21.35;14.15;;;;;;;1.70;84.16;102308.14;1731747;82;20987;-35
2020/12/20 10:41:02;;;;;;;15.00;10.78;;;;;;;1.70;84.15;102307.75;1731838;82;22283;-36
2020/12/20 10:43:30;;;;;;;18.10;11.83;;;;;;;1.68;84.01;102306.80;1731803;82;21089;-36
2020/12/20 10:45:58;;;;;;;20.05;13.28;;;;;;;1.62;84.01;102305.20;1731646;82;20931;-34
2020/12/20 10:48:26;;;;;;;20.92;13.65;;;;;;;1.54;83.97;102304.87;1731653;82;21034;-35
2020/12/20 10:50:54;;;;;;;24.63;14.38;;;;;;;1.47;84.08;102307.04;1731715;82;20989;-36
2020/12/20 10:53:22;;;;;;;19.98;13.53;;;;;;;1.47;84.13;102313.00;1731836;82;22566;-36
2020/12/20 10:55:51;;;;;;;20.80;13.62;;;;;;;1.42;84.14;102306.80;1731619;82;20951;-35
2020/12/20 10:58:18;;;;;;;21.10;14.05;;;;;;;1.37;84.34;102313.37;1731759;82;21066;-37
2020/12/20 11:00:46;;;;;;;20.10;13.20;;;;;;;1.38;84.45;102315.12;1731688;82;20979;-36
2020/12/20 11:03:14;;;;;;;19.35;12.53;;;;;;;1.39;84.47;102317.76;1731790;82;21010;-36
2020/12/20 11:05:42;;;;;;;17.52;11.80;;;;;;;1.35;84.55;102322.63;1731812;82;21636;-37
2020/12/20 11:08:10;;;;;;;23.18;15.40;;;;;;;1.30;84.55;102328.77;1731676;82;21010;-36
2020/12/20 11:10:40;;;;;;;23.55;14.65;;;;;;;1.26;84.70;102326.48;1731724;82;20889;-36
2020/12/20 11:13:09;;;;;;;22.93;14.73;;;;;;;1.27;84.84;102327.34;1731650;82;20943;-36
2020/12/20 11:15:37;;;;;;;23.62;14.98;;;;;;;1.28;84.91;102327.44;1731680;82;20923;-36
2020/12/20 11:18:04;;;;;;;18.57;12.85;;;;;;;1.31;85.00;102326.69;1731672;82;21276;-36
2020/12/20 11:20:32;;;;;;;19.75;13.05;;;;;;;1.38;84.84;102322.36;1731430;82;20987;-36
2020/12/20 11:23:04;;;;;;;18.98;13.13;;;;;;;1.37;84.82;102324.44;1731746;82;21038;-34
2020/12/20 11:25:32;;;;;;;18.42;12.33;;;;;;;1.35;84.85;102320.93;1731774;81;21056;-38
2020/12/20 11:27:59;;;;;;;21.37;12.80;;;;;;;1.35;84.84;102338.80;1731670;82;20880;-38
2020/12/20 11:30:27;;;;;;;16.85;11.75;;;;;;;1.34;84.75;102329.81;1731670;82;21240;-35